Humidity-temperature Sensor

Selected Measurement Type: Relative Humidity

 
Relative Humidity [%]     6 entries per hour
Showing data from 5/24/2022 (00:00:00 Z) to 5/17/2022 (00:01:00 Z)
Previous Next [ Day | 3-Days | 7-Days ]
First Last
Prev [ Day | 3-Days | 7-Days ] Next
First Last

Start Time:     :
End Time:     :     
Time (in GMT) :00 :50 :40 :30 :20 :10
Previous Next [ Day | 3-Days | 7-Days ]
First Last
Prev [ Day | 3-Days | 7-Days ] Next
First Last


123 => good data
MM => data is determined as missing
-- => data not received/configured
Back to Top Back to Top
5/24/2022 00:00 to 23:10 89.09 89.34 89.28 89.30 88.91 88.97
5/23/2022 23:00 to 22:10 88.99 88.46 88.29 88.62 88.37 87.96
5/23/2022 22:00 to 21:10 87.96 88.17 88.97 88.97 88.48 88.66
5/23/2022 21:00 to 20:10 88.97 89.20 89.40 89.79 89.67 89.79
5/23/2022 20:00 to 19:10 89.44 89.38 89.22 88.89 89.05 89.13
5/23/2022 19:00 to 18:10 89.57 89.73 89.44 89.05 89.07 89.16
5/23/2022 18:00 to 17:10 88.83 88.56 88.29 88.81 88.91 89.30
5/23/2022 17:00 to 16:10 89.24 88.95 89.03 89.20 89.36 89.24
5/23/2022 16:00 to 15:10 89.36 89.71 89.75 89.69 89.71 89.40
5/23/2022 15:00 to 14:10 89.28 89.26 89.38 89.53 89.53 89.55
5/23/2022 14:00 to 13:10 89.59 89.67 89.96 90.00 90.12 89.92
5/23/2022 13:00 to 12:10 89.75 89.92 90.04 90.02 89.90 89.71
5/23/2022 12:00 to 11:10 89.75 90.08 90.22 90.41 90.57 90.43
5/23/2022 11:00 to 10:10 90.61 90.72 90.76 91.05 90.84 90.70
5/23/2022 10:00 to 9:10 90.45 90.55 90.51 90.35 90.06 89.90
5/23/2022 09:00 to 8:10 89.96 89.83 89.79 90.63 90.78 90.72
5/23/2022 08:00 to 7:10 90.24 90.16 89.96 89.67 89.77 89.75
5/23/2022 07:00 to 6:10 89.65 89.61 89.67 90.08 90.31 90.80
5/23/2022 06:00 to 5:10 90.76 90.84 90.70 90.63 90.41 90.10
5/23/2022 05:00 to 4:10 90.08 90.14 89.85 89.85 89.57 89.63
5/23/2022 04:00 to 3:10 89.69 89.61 89.59 89.65 89.73 89.16
5/23/2022 03:00 to 2:10 88.70 88.64 88.81 88.99 89.40 89.65
5/23/2022 02:00 to 1:10 89.81 90.00 90.08 90.08 90.31 90.10
5/23/2022 01:00 to 0:10 90.10 90.24 90.41 90.61 90.63 90.18
5/23/2022 00:00 to 23:10 89.05 87.04 84.68 84.37 83.98 83.71
5/22/2022 23:00 to 22:10 83.57 84.10 84.45 84.49 84.70 84.74
5/22/2022 22:00 to 21:10 84.53 84.84 85.33 84.98 85.21 85.11
5/22/2022 21:00 to 20:10 85.19 85.03 84.61 84.55 84.94 84.90
5/22/2022 20:00 to 19:10 84.68 84.72 84.57 84.35 84.02 83.65
5/22/2022 19:00 to 18:10 83.69 84.35 84.72 84.43 84.51 84.84
5/22/2022 18:00 to 17:10 85.42 85.74 86.34 86.90 87.14 86.87
5/22/2022 17:00 to 16:10 86.92 86.81 86.65 86.36 86.26 86.34
5/22/2022 16:00 to 15:10 86.36 86.11 86.07 86.59 86.81 87.68
5/22/2022 15:00 to 14:10 88.00 88.03 88.00 87.80 87.61 87.20
5/22/2022 14:00 to 13:10 87.16 87.39 87.72 88.46 89.26 89.03
5/22/2022 13:00 to 12:10 87.94 86.85 86.87 86.79 87.18 87.29
5/22/2022 12:00 to 11:10 87.74 86.90 86.90 86.59 86.53 86.32
5/22/2022 11:00 to 10:10 87.22 88.00 88.54 89.07 89.42 89.50
5/22/2022 10:00 to 9:10 89.59 89.67 89.40 89.46 89.73 90.16
5/22/2022 09:00 to 8:10 90.31 90.55 90.78 90.47 89.48 88.79
5/22/2022 08:00 to 7:10 88.89 89.38 89.69 90.00 89.34 87.49
5/22/2022 07:00 to 6:10 87.20 86.96 86.28 86.01 85.85 85.50
5/22/2022 06:00 to 5:10 85.00 84.96 85.05 84.76 84.18 84.49
5/22/2022 05:00 to 4:10 84.41 84.20 83.69 83.48 83.55 83.87
5/22/2022 04:00 to 3:10 84.37 85.17 85.25 84.78 84.92 85.00
5/22/2022 03:00 to 2:10 85.23 85.74 85.15 84.49 84.31 84.08
5/22/2022 02:00 to 1:10 84.51 84.78 85.00 85.09 84.94 85.15
5/22/2022 01:00 to 0:10 85.33 84.96 84.68 84.31 84.55 84.59
5/22/2022 00:00 to 23:10 84.02 83.09 83.40 83.67 83.98 83.87
5/21/2022 23:00 to 22:10 83.75 83.69 83.71 84.20 84.43 85.00
5/21/2022 22:00 to 21:10 85.42 85.52 85.91 85.64 85.58 85.31
5/21/2022 21:00 to 20:10 85.60 85.74 85.97 86.03 86.18 85.68
5/21/2022 20:00 to 19:10 85.31 85.81 85.54 85.44 85.81 86.38
5/21/2022 19:00 to 18:10 85.83 86.11 85.52 85.39 85.37 85.70
5/21/2022 18:00 to 17:10 85.48 85.95 86.26 86.26 86.09 85.93
5/21/2022 17:00 to 16:10 85.42 85.33 85.66 86.20 86.03 86.32
5/21/2022 16:00 to 15:10 86.55 86.67 86.96 86.40 85.89 85.46
5/21/2022 15:00 to 14:10 85.48 84.94 85.25 85.97 85.89 85.54
5/21/2022 14:00 to 13:10 85.91 86.24 85.99 86.05 86.53 87.22
5/21/2022 13:00 to 12:10 87.72 88.13 88.15 88.70 88.64 88.77
5/21/2022 12:00 to 11:10 88.87 88.93 88.56 88.68 88.64 89.09
5/21/2022 11:00 to 10:10 89.42 89.69 89.79 89.67 89.71 89.79
5/21/2022 10:00 to 9:10 89.71 89.85 89.34 88.95 88.68 88.15
5/21/2022 09:00 to 8:10 87.51 87.74 87.61 87.18 86.48 86.20
5/21/2022 08:00 to 7:10 86.24 86.53 86.75 87.22 88.05 88.48
5/21/2022 07:00 to 6:10 88.56 88.21 88.23 87.66 87.12 87.51
5/21/2022 06:00 to 5:10 87.74 87.02 86.32 85.85 86.46 86.75
5/21/2022 05:00 to 4:10 86.59 86.18 85.64 85.29 86.38 86.71
5/21/2022 04:00 to 3:10 86.90 87.33 87.41 86.71 86.11 85.60
5/21/2022 03:00 to 2:10 85.85 85.50 85.62 85.74 85.70 86.18
5/21/2022 02:00 to 1:10 86.03 85.58 85.50 86.34 86.65 86.26
5/21/2022 01:00 to 0:10 86.01 86.57 86.61 86.59 86.05 86.40
5/21/2022 00:00 to 23:10 86.92 86.20 86.55 86.53 86.75 86.65
5/20/2022 23:00 to 22:10 86.94 86.42 85.27 85.48 86.03 85.60
5/20/2022 22:00 to 21:10 85.50 85.95 86.55 86.92 87.33 87.49
5/20/2022 21:00 to 20:10 87.49 87.92 88.52 88.68 88.19 87.80
5/20/2022 20:00 to 19:10 88.11 88.89 89.22 88.64 88.17 88.91
5/20/2022 19:00 to 18:10 88.50 88.74 89.22 89.53 88.97 88.03
5/20/2022 18:00 to 17:10 87.84 87.53 87.68 87.16 87.24 88.03
5/20/2022 17:00 to 16:10 88.46 88.95 88.91 89.01 88.91 88.95
5/20/2022 16:00 to 15:10 88.93 88.46 88.31 87.72 88.09 88.00
5/20/2022 15:00 to 14:10 88.35 88.56 88.99 88.85 88.58 89.18
5/20/2022 14:00 to 13:10 89.42 89.11 89.87 90.24 91.00 91.23
5/20/2022 13:00 to 12:10 89.28 87.63 87.51 87.33 87.08 88.37
5/20/2022 12:00 to 11:10 88.50 88.83 88.50 87.45 87.68 88.03
5/20/2022 11:00 to 10:10 88.17 88.09 88.58 89.65 91.09 91.81
5/20/2022 10:00 to 9:10 92.40 92.28 90.27 89.05 89.28 90.04
5/20/2022 09:00 to 8:10 91.17 91.95 91.79 91.23 91.11 90.59
5/20/2022 08:00 to 7:10 89.75 89.09 88.72 89.18 89.71 90.22
5/20/2022 07:00 to 6:10 90.22 89.63 88.95 88.52 87.72 88.03
5/20/2022 06:00 to 5:10 88.66 88.83 88.35 87.74 88.27 88.70
5/20/2022 05:00 to 4:10 88.93 89.32 89.65 89.01 88.93 89.67
5/20/2022 04:00 to 3:10 90.27 91.42 91.44 91.33 91.37 91.40
5/20/2022 03:00 to 2:10 91.11 91.42 91.44 91.64 92.01 92.46
5/20/2022 02:00 to 1:10 92.96 94.19 95.34 96.74 96.84 96.66
5/20/2022 01:00 to 0:10 95.81 96.00 97.13 97.87 98.48 98.65
5/20/2022 00:00 to 23:10 98.83 98.38 98.34 97.91 97.52 97.07
5/19/2022 23:00 to 22:10 97.01 97.01 97.97 98.48 99.06 99.84
5/19/2022 22:00 to 21:10 100.33 100.77 100.85 100.89 100.91 100.91
5/19/2022 21:00 to 20:10 100.89 100.72 100.81 100.36 100.50 100.50
5/19/2022 20:00 to 19:10 100.38 100.36 100.07 100.21 100.83 100.89
5/19/2022 19:00 to 18:10 100.91 100.91 100.89 100.91 100.81 100.58
5/19/2022 18:00 to 17:10 100.42 99.64 98.90 97.48 95.94 96.24
5/19/2022 17:00 to 16:10 95.42 95.11 94.66 95.22 96.37 97.42
5/19/2022 16:00 to 15:10 98.42 98.32 98.36 98.24 98.09 97.79
5/19/2022 15:00 to 14:10 97.15 96.41 93.96 89.57 89.42 90.16
5/19/2022 14:00 to 13:10 90.45 90.61 90.74 89.59 89.67 89.20
5/19/2022 13:00 to 12:10 89.40 89.55 89.01 88.93 88.97 89.92
5/19/2022 12:00 to 11:10 90.88 92.14 93.10 92.59 92.73 93.59
5/19/2022 11:00 to 10:10 94.58 94.77 94.40 94.56 93.94 93.27
5/19/2022 10:00 to 9:10 92.90 91.99 91.54 90.96 90.88 90.94
5/19/2022 09:00 to 8:10 91.35 91.44 91.23 91.44 91.48 91.31
5/19/2022 08:00 to 7:10 90.80 90.06 90.02 90.08 89.61 89.03
5/19/2022 07:00 to 6:10 89.11 89.65 89.98 90.31 91.23 92.71
5/19/2022 06:00 to 5:10 93.64 93.76 93.61 93.51 93.68 94.13
5/19/2022 05:00 to 4:10 94.35 94.37 94.40 94.95 95.59 95.77
5/19/2022 04:00 to 3:10 96.14 96.49 96.37 96.06 95.07 93.33
5/19/2022 03:00 to 2:10 91.72 89.48 89.63 89.81 90.02 89.75
5/19/2022 02:00 to 1:10 89.34 88.79 88.56 88.29 88.58 88.56
5/19/2022 01:00 to 0:10 88.64 88.44 88.46 88.13 87.86 88.00
5/19/2022 00:00 to 23:10 88.00 87.70 88.21 87.98 87.78 88.21
5/18/2022 23:00 to 22:10 88.29 88.37 88.29 87.86 87.53 88.00
5/18/2022 22:00 to 21:10 87.86 87.76 88.46 88.54 88.31 88.21
5/18/2022 21:00 to 20:10 88.64 88.33 88.62 88.91 89.73 90.68
5/18/2022 20:00 to 19:10 90.63 90.72 90.55 90.14 90.08 89.81
5/18/2022 19:00 to 18:10 89.32 89.85 90.29 89.96 89.13 87.88
5/18/2022 18:00 to 17:10 87.55 88.15 88.40 88.37 88.91 88.89
5/18/2022 17:00 to 16:10 88.46 88.17 87.72 87.51 87.74 87.82
5/18/2022 16:00 to 15:10 87.45 87.39 87.53 87.88 87.70 88.19
5/18/2022 15:00 to 14:10 88.13 88.07 88.40 88.40 88.64 88.52
5/18/2022 14:00 to 13:10 88.56 88.70 88.60 88.21 88.44 88.60
5/18/2022 13:00 to 12:10 89.81 90.66 91.37 92.46 92.67 91.99
5/18/2022 12:00 to 11:10 91.23 90.37 90.39 89.83 89.53 89.57
5/18/2022 11:00 to 10:10 89.96 90.27 90.96 90.98 90.86 90.88
5/18/2022 10:00 to 9:10 91.21 91.52 91.66 91.09 91.40 92.18
5/18/2022 09:00 to 8:10 93.10 93.72 93.84 93.00 92.75 93.22
5/18/2022 08:00 to 7:10 93.43 93.33 92.90 92.75 93.00 93.16
5/18/2022 07:00 to 6:10 93.33 93.47 93.70 93.86 93.64 92.96
5/18/2022 06:00 to 5:10 92.18 90.74 89.85 88.81 87.61 87.68
5/18/2022 05:00 to 4:10 88.29 88.68 88.93 89.36 89.50 90.20
5/18/2022 04:00 to 3:10 90.74 91.81 92.46 92.77 93.10 92.81
5/18/2022 03:00 to 2:10 93.04 92.98 92.90 92.67 92.24 91.74
5/18/2022 02:00 to 1:10 92.30 92.96 93.53 94.00 94.52 95.05
5/18/2022 01:00 to 0:10 95.14 95.07 94.66 94.50 94.42 94.07
5/18/2022 00:00 to 23:10 94.50 94.62 94.31 93.74 93.35 93.35
5/17/2022 23:00 to 22:10 92.69 92.48 91.93 91.74 92.38 92.85
5/17/2022 22:00 to 21:10 93.04 93.47 93.61 93.51 93.53 93.37
5/17/2022 21:00 to 20:10 93.24 93.12 93.27 93.35 93.20 93.14
5/17/2022 20:00 to 19:10 93.04 92.71 91.97 92.11 92.36 92.32
5/17/2022 19:00 to 18:10 92.32 92.11 91.40 91.33 91.46 91.25
5/17/2022 18:00 to 17:10 91.31 91.09 90.84 90.68 91.37 92.05
5/17/2022 17:00 to 16:10 92.57 93.20 93.33 93.39 93.45 93.45
5/17/2022 16:00 to 15:10 93.39 93.43 93.20 93.18 93.37 93.47
5/17/2022 15:00 to 14:10 93.59 93.70 93.78 93.45 92.69 91.70
5/17/2022 14:00 to 13:10 91.44 91.21 91.13 90.86 90.16 89.98
5/17/2022 13:00 to 12:10 90.96 92.07 92.53 92.73 92.83 92.81
5/17/2022 12:00 to 11:10 92.55 92.16 92.03 91.60 91.42 91.54
5/17/2022 11:00 to 10:10 91.62 92.22 92.92 93.70 93.94 94.27
5/17/2022 10:00 to 9:10 94.46 94.62 94.72 94.79 95.32 95.71
5/17/2022 09:00 to 8:10 96.14 96.35 96.08 96.29 96.31 96.37
5/17/2022 08:00 to 7:10 96.22 96.00 95.98 95.53 95.14 94.58
5/17/2022 07:00 to 6:10 94.23 93.80 93.31 93.33 93.53 93.74
5/17/2022 06:00 to 5:10 93.22 92.79 92.22 92.32 92.75 93.00
5/17/2022 05:00 to 4:10 -- -- -- -- -- --
5/17/2022 04:00 to 3:10 94.72 94.85 94.48 94.35 94.13 94.00
5/17/2022 03:00 to 2:10 93.98 94.13 94.03 94.07 94.15 94.23
5/17/2022 02:00 to 1:10 94.29 94.50 94.54 94.93 95.07 95.30
5/17/2022 01:00 to 0:10 95.71 95.96 96.14 96.18 96.27 96.29